sensor_id;sensor_type;location;lat;lon;timestamp;P1;durP1;ratioP1;P2;durP2;ratioP2
57155;SDS011;43023;59.928;10.682;2023-06-14T00:00:19;2.88;;;1.40;;
57155;SDS011;43023;59.928;10.682;2023-06-14T00:02:45;1.70;;;1.60;;
57155;SDS011;43023;59.928;10.682;2023-06-14T00:05:12;2.00;;;1.40;;
57155;SDS011;43023;59.928;10.682;2023-06-14T00:07:39;3.17;;;1.90;;
57155;SDS011;43023;59.928;10.682;2023-06-14T00:10:08;1.90;;;1.45;;
57155;SDS011;43023;59.928;10.682;2023-06-14T00:12:35;3.50;;;1.80;;
57155;SDS011;43023;59.928;10.682;2023-06-14T00:15:02;4.32;;;1.63;;
57155;SDS011;43023;59.928;10.682;2023-06-14T00:17:28;3.13;;;1.67;;
57155;SDS011;43023;59.928;10.682;2023-06-14T00:19:57;2.72;;;1.80;;
57155;SDS011;43023;59.928;10.682;2023-06-14T00:22:24;2.78;;;2.03;;
57155;SDS011;43023;59.928;10.682;2023-06-14T00:24:50;1.63;;;1.52;;
57155;SDS011;43023;59.928;10.682;2023-06-14T00:27:16;2.33;;;1.83;;
57155;SDS011;43023;59.928;10.682;2023-06-14T00:29:42;1.85;;;1.70;;
57155;SDS011;43023;59.928;10.682;2023-06-14T00:32:08;1.40;;;1.40;;
57155;SDS011;43023;59.928;10.682;2023-06-14T00:34:34;3.95;;;2.28;;
57155;SDS011;43023;59.928;10.682;2023-06-14T00:37:01;2.13;;;1.60;;
57155;SDS011;43023;59.928;10.682;2023-06-14T00:39:27;1.63;;;1.52;;
57155;SDS011;43023;59.928;10.682;2023-06-14T00:41:53;2.42;;;1.83;;
57155;SDS011;43023;59.928;10.682;2023-06-14T00:44:19;3.75;;;2.10;;
57155;SDS011;43023;59.928;10.682;2023-06-14T00:46:46;3.10;;;1.50;;
57155;SDS011;43023;59.928;10.682;2023-06-14T00:49:13;1.48;;;1.38;;
57155;SDS011;43023;59.928;10.682;2023-06-14T00:51:40;1.63;;;1.52;;
57155;SDS011;43023;59.928;10.682;2023-06-14T00:54:07;2.03;;;1.73;;
57155;SDS011;43023;59.928;10.682;2023-06-14T00:56:33;1.88;;;1.77;;
57155;SDS011;43023;59.928;10.682;2023-06-14T00:58:59;1.88;;;1.70;;
57155;SDS011;43023;59.928;10.682;2023-06-14T01:01:25;1.67;;;1.55;;
57155;SDS011;43023;59.928;10.682;2023-06-14T01:03:53;1.90;;;1.67;;
57155;SDS011;43023;59.928;10.682;2023-06-14T01:06:27;2.28;;;1.88;;
57155;SDS011;43023;59.928;10.682;2023-06-14T01:09:10;1.85;;;1.40;;
57155;SDS011;43023;59.928;10.682;2023-06-14T01:11:46;2.03;;;1.60;;
57155;SDS011;43023;59.928;10.682;2023-06-14T01:14:13;3.00;;;1.73;;
57155;SDS011;43023;59.928;10.682;2023-06-14T01:16:40;2.45;;;1.30;;
57155;SDS011;43023;59.928;10.682;2023-06-14T01:19:07;1.83;;;1.60;;
57155;SDS011;43023;59.928;10.682;2023-06-14T01:21:37;3.53;;;1.70;;
57155;SDS011;43023;59.928;10.682;2023-06-14T01:24:07;2.25;;;1.83;;
57155;SDS011;43023;59.928;10.682;2023-06-14T01:26:34;2.08;;;1.88;;
57155;SDS011;43023;59.928;10.682;2023-06-14T01:29:00;1.63;;;1.52;;
57155;SDS011;43023;59.928;10.682;2023-06-14T01:31:27;1.60;;;1.50;;
57155;SDS011;43023;59.928;10.682;2023-06-14T01:33:55;1.77;;;1.52;;
57155;SDS011;43023;59.928;10.682;2023-06-14T01:36:21;2.85;;;1.35;;
57155;SDS011;43023;59.928;10.682;2023-06-14T01:38:48;1.65;;;1.55;;
57155;SDS011;43023;59.928;10.682;2023-06-14T01:41:16;2.03;;;1.92;;
57155;SDS011;43023;59.928;10.682;2023-06-14T01:43:43;2.17;;;1.92;;
57155;SDS011;43023;59.928;10.682;2023-06-14T01:46:10;1.67;;;1.58;;
57155;SDS011;43023;59.928;10.682;2023-06-14T01:48:36;1.67;;;1.58;;
57155;SDS011;43023;59.928;10.682;2023-06-14T01:51:03;1.80;;;1.70;;
57155;SDS011;43023;59.928;10.682;2023-06-14T01:53:29;1.50;;;1.40;;
57155;SDS011;43023;59.928;10.682;2023-06-14T01:55:55;1.92;;;1.48;;
57155;SDS011;43023;59.928;10.682;2023-06-14T01:58:21;2.67;;;1.60;;
57155;SDS011;43023;59.928;10.682;2023-06-14T02:03:41;1.83;;;1.63;;
57155;SDS011;43023;59.928;10.682;2023-06-14T02:06:09;1.70;;;1.60;;
57155;SDS011;43023;59.928;10.682;2023-06-14T02:08:37;2.20;;;1.85;;
57155;SDS011;43023;59.928;10.682;2023-06-14T02:11:03;1.92;;;1.77;;
57155;SDS011;43023;59.928;10.682;2023-06-14T02:13:29;2.13;;;1.52;;
57155;SDS011;43023;59.928;10.682;2023-06-14T02:15:55;3.47;;;1.85;;
57155;SDS011;43023;59.928;10.682;2023-06-14T02:18:22;4.20;;;1.55;;
57155;SDS011;43023;59.928;10.682;2023-06-14T02:20:49;1.45;;;1.35;;
57155;SDS011;43023;59.928;10.682;2023-06-14T02:23:15;1.88;;;1.70;;
57155;SDS011;43023;59.928;10.682;2023-06-14T02:25:41;1.65;;;1.55;;
57155;SDS011;43023;59.928;10.682;2023-06-14T02:28:09;1.85;;;1.75;;
57155;SDS011;43023;59.928;10.682;2023-06-14T02:30:36;1.83;;;1.73;;
57155;SDS011;43023;59.928;10.682;2023-06-14T02:33:02;1.88;;;1.67;;
57155;SDS011;43023;59.928;10.682;2023-06-14T02:35:29;1.80;;;1.70;;
57155;SDS011;43023;59.928;10.682;2023-06-14T02:37:55;2.25;;;1.58;;
57155;SDS011;43023;59.928;10.682;2023-06-14T02:40:22;1.48;;;1.33;;
57155;SDS011;43023;59.928;10.682;2023-06-14T02:42:48;1.63;;;1.52;;
57155;SDS011;43023;59.928;10.682;2023-06-14T02:45:14;2.00;;;1.40;;
57155;SDS011;43023;59.928;10.682;2023-06-14T02:47:41;2.15;;;1.90;;
57155;SDS011;43023;59.928;10.682;2023-06-14T02:50:08;1.95;;;1.40;;
57155;SDS011;43023;59.928;10.682;2023-06-14T02:52:35;1.70;;;1.60;;
57155;SDS011;43023;59.928;10.682;2023-06-14T02:55:01;1.50;;;1.40;;
57155;SDS011;43023;59.928;10.682;2023-06-14T02:57:27;1.90;;;1.08;;
57155;SDS011;43023;59.928;10.682;2023-06-14T02:59:53;2.03;;;1.50;;
57155;SDS011;43023;59.928;10.682;2023-06-14T03:02:19;1.33;;;1.23;;
57155;SDS011;43023;59.928;10.682;2023-06-14T03:04:45;1.58;;;1.48;;
57155;SDS011;43023;59.928;10.682;2023-06-14T03:07:11;2.10;;;1.50;;
57155;SDS011;43023;59.928;10.682;2023-06-14T03:09:38;1.75;;;1.65;;
57155;SDS011;43023;59.928;10.682;2023-06-14T03:12:05;1.40;;;1.30;;
57155;SDS011;43023;59.928;10.682;2023-06-14T03:14:35;1.50;;;1.40;;
57155;SDS011;43023;59.928;10.682;2023-06-14T03:17:01;1.80;;;1.65;;
57155;SDS011;43023;59.928;10.682;2023-06-14T03:19:27;1.20;;;1.10;;
57155;SDS011;43023;59.928;10.682;2023-06-14T03:21:53;1.40;;;1.30;;
57155;SDS011;43023;59.928;10.682;2023-06-14T03:24:23;2.13;;;1.17;;
57155;SDS011;43023;59.928;10.682;2023-06-14T03:26:49;1.60;;;1.50;;
57155;SDS011;43023;59.928;10.682;2023-06-14T03:29:15;1.13;;;0.93;;
57155;SDS011;43023;59.928;10.682;2023-06-14T03:31:55;1.60;;;1.38;;
57155;SDS011;43023;59.928;10.682;2023-06-14T03:34:22;1.67;;;1.35;;
57155;SDS011;43023;59.928;10.682;2023-06-14T03:36:48;1.70;;;1.60;;
57155;SDS011;43023;59.928;10.682;2023-06-14T03:39:14;1.63;;;1.40;;
57155;SDS011;43023;59.928;10.682;2023-06-14T03:41:40;1.85;;;1.35;;
57155;SDS011;43023;59.928;10.682;2023-06-14T03:44:06;1.65;;;1.55;;
57155;SDS011;43023;59.928;10.682;2023-06-14T03:46:32;1.70;;;1.48;;
57155;SDS011;43023;59.928;10.682;2023-06-14T03:48:59;1.92;;;1.38;;
57155;SDS011;43023;59.928;10.682;2023-06-14T03:51:25;1.42;;;1.30;;
57155;SDS011;43023;59.928;10.682;2023-06-14T03:53:51;1.40;;;1.30;;
57155;SDS011;43023;59.928;10.682;2023-06-14T03:56:17;1.35;;;1.25;;
57155;SDS011;43023;59.928;10.682;2023-06-14T03:58:43;1.63;;;1.48;;
57155;SDS011;43023;59.928;10.682;2023-06-14T04:01:10;1.92;;;1.75;;
57155;SDS011;43023;59.928;10.682;2023-06-14T04:03:37;1.63;;;1.52;;
57155;SDS011;43023;59.928;10.682;2023-06-14T04:06:05;1.40;;;1.30;;
57155;SDS011;43023;59.928;10.682;2023-06-14T04:08:32;1.23;;;1.08;;
57155;SDS011;43023;59.928;10.682;2023-06-14T04:10:59;1.50;;;1.40;;
57155;SDS011;43023;59.928;10.682;2023-06-14T04:13:25;2.80;;;1.30;;
57155;SDS011;43023;59.928;10.682;2023-06-14T04:15:51;1.52;;;1.42;;
57155;SDS011;43023;59.928;10.682;2023-06-14T04:18:18;1.70;;;1.60;;
57155;SDS011;43023;59.928;10.682;2023-06-14T04:20:44;1.35;;;1.25;;
57155;SDS011;43023;59.928;10.682;2023-06-14T04:23:14;1.52;;;1.42;;
57155;SDS011;43023;59.928;10.682;2023-06-14T04:25:40;1.40;;;1.30;;
57155;SDS011;43023;59.928;10.682;2023-06-14T04:28:10;1.58;;;1.48;;
57155;SDS011;43023;59.928;10.682;2023-06-14T04:30:37;2.53;;;1.42;;
57155;SDS011;43023;59.928;10.682;2023-06-14T04:33:04;2.42;;;1.20;;
57155;SDS011;43023;59.928;10.682;2023-06-14T04:35:31;2.03;;;1.63;;
57155;SDS011;43023;59.928;10.682;2023-06-14T04:38:01;5.72;;;2.50;;
57155;SDS011;43023;59.928;10.682;2023-06-14T04:40:29;6.63;;;3.75;;
57155;SDS011;43023;59.928;10.682;2023-06-14T04:42:56;5.93;;;3.90;;
57155;SDS011;43023;59.928;10.682;2023-06-14T04:45:22;11.93;;;4.60;;
57155;SDS011;43023;59.928;10.682;2023-06-14T04:47:49;8.30;;;3.65;;
57155;SDS011;43023;59.928;10.682;2023-06-14T04:50:16;9.85;;;5.05;;
57155;SDS011;43023;59.928;10.682;2023-06-14T04:52:43;8.68;;;4.07;;
57155;SDS011;43023;59.928;10.682;2023-06-14T04:55:09;8.32;;;5.00;;
57155;SDS011;43023;59.928;10.682;2023-06-14T04:57:35;7.03;;;4.43;;
57155;SDS011;43023;59.928;10.682;2023-06-14T05:00:03;13.25;;;5.00;;
57155;SDS011;43023;59.928;10.682;2023-06-14T05:02:30;6.95;;;4.53;;
57155;SDS011;43023;59.928;10.682;2023-06-14T05:04:57;9.75;;;4.57;;
57155;SDS011;43023;59.928;10.682;2023-06-14T05:07:24;10.60;;;4.28;;
57155;SDS011;43023;59.928;10.682;2023-06-14T05:09:50;10.75;;;4.35;;
57155;SDS011;43023;59.928;10.682;2023-06-14T05:12:16;7.30;;;4.65;;
57155;SDS011;43023;59.928;10.682;2023-06-14T05:14:45;8.45;;;3.63;;
57155;SDS011;43023;59.928;10.682;2023-06-14T05:17:11;7.93;;;3.78;;
57155;SDS011;43023;59.928;10.682;2023-06-14T05:19:38;11.05;;;5.22;;
57155;SDS011;43023;59.928;10.682;2023-06-14T05:22:05;9.48;;;4.85;;
57155;SDS011;43023;59.928;10.682;2023-06-14T05:24:31;10.35;;;5.03;;
57155;SDS011;43023;59.928;10.682;2023-06-14T05:26:57;7.57;;;4.25;;
57155;SDS011;43023;59.928;10.682;2023-06-14T05:29:24;9.57;;;4.75;;
57155;SDS011;43023;59.928;10.682;2023-06-14T05:31:51;6.72;;;3.95;;
57155;SDS011;43023;59.928;10.682;2023-06-14T05:34:17;9.13;;;4.75;;
57155;SDS011;43023;59.928;10.682;2023-06-14T05:36:43;9.57;;;4.40;;
57155;SDS011;43023;59.928;10.682;2023-06-14T05:39:09;11.50;;;4.50;;
57155;SDS011;43023;59.928;10.682;2023-06-14T05:41:35;8.05;;;4.03;;
57155;SDS011;43023;59.928;10.682;2023-06-14T05:44:01;15.13;;;4.70;;
57155;SDS011;43023;59.928;10.682;2023-06-14T05:46:27;21.73;;;5.20;;
57155;SDS011;43023;59.928;10.682;2023-06-14T05:48:54;10.80;;;4.63;;
57155;SDS011;43023;59.928;10.682;2023-06-14T05:51:20;6.72;;;4.45;;
57155;SDS011;43023;59.928;10.682;2023-06-14T05:53:47;9.75;;;3.72;;
57155;SDS011;43023;59.928;10.682;2023-06-14T05:56:14;9.93;;;4.30;;
57155;SDS011;43023;59.928;10.682;2023-06-14T05:58:40;10.98;;;4.32;;
57155;SDS011;43023;59.928;10.682;2023-06-14T06:01:06;6.55;;;4.28;;
57155;SDS011;43023;59.928;10.682;2023-06-14T06:03:32;12.38;;;4.40;;
57155;SDS011;43023;59.928;10.682;2023-06-14T06:05:59;8.23;;;3.95;;
57155;SDS011;43023;59.928;10.682;2023-06-14T06:08:26;10.95;;;3.92;;
57155;SDS011;43023;59.928;10.682;2023-06-14T06:10:52;8.45;;;4.13;;
57155;SDS011;43023;59.928;10.682;2023-06-14T06:13:18;4.13;;;3.15;;
57155;SDS011;43023;59.928;10.682;2023-06-14T06:15:44;4.50;;;3.40;;
57155;SDS011;43023;59.928;10.682;2023-06-14T06:18:11;8.23;;;4.18;;
57155;SDS011;43023;59.928;10.682;2023-06-14T06:20:37;8.50;;;3.88;;
57155;SDS011;43023;59.928;10.682;2023-06-14T06:23:03;7.30;;;3.80;;
57155;SDS011;43023;59.928;10.682;2023-06-14T06:25:29;8.75;;;3.50;;
57155;SDS011;43023;59.928;10.682;2023-06-14T06:27:57;7.20;;;4.28;;
57155;SDS011;43023;59.928;10.682;2023-06-14T06:30:23;7.28;;;3.88;;
57155;SDS011;43023;59.928;10.682;2023-06-14T06:32:49;5.13;;;3.97;;
57155;SDS011;43023;59.928;10.682;2023-06-14T06:35:16;6.50;;;3.53;;
57155;SDS011;43023;59.928;10.682;2023-06-14T06:37:42;11.27;;;3.63;;
57155;SDS011;43023;59.928;10.682;2023-06-14T06:40:08;6.30;;;3.72;;
57155;SDS011;43023;59.928;10.682;2023-06-14T06:42:35;3.53;;;3.20;;
57155;SDS011;43023;59.928;10.682;2023-06-14T06:45:01;4.57;;;3.22;;
57155;SDS011;43023;59.928;10.682;2023-06-14T06:47:27;8.75;;;3.20;;
57155;SDS011;43023;59.928;10.682;2023-06-14T06:49:53;5.28;;;3.72;;
57155;SDS011;43023;59.928;10.682;2023-06-14T06:52:19;3.35;;;3.05;;
57155;SDS011;43023;59.928;10.682;2023-06-14T06:54:45;4.68;;;3.50;;
57155;SDS011;43023;59.928;10.682;2023-06-14T06:57:12;5.47;;;3.28;;
57155;SDS011;43023;59.928;10.682;2023-06-14T06:59:38;4.22;;;2.97;;
57155;SDS011;43023;59.928;10.682;2023-06-14T07:02:04;8.30;;;3.55;;
57155;SDS011;43023;59.928;10.682;2023-06-14T07:04:30;5.95;;;3.55;;
57155;SDS011;43023;59.928;10.682;2023-06-14T07:06:56;12.48;;;3.20;;
57155;SDS011;43023;59.928;10.682;2023-06-14T07:09:23;3.97;;;2.83;;
57155;SDS011;43023;59.928;10.682;2023-06-14T07:11:49;10.38;;;3.38;;
57155;SDS011;43023;59.928;10.682;2023-06-14T07:14:15;4.45;;;2.80;;
57155;SDS011;43023;59.928;10.682;2023-06-14T07:16:42;3.63;;;2.90;;
57155;SDS011;43023;59.928;10.682;2023-06-14T07:19:08;4.05;;;2.70;;
57155;SDS011;43023;59.928;10.682;2023-06-14T07:21:35;7.05;;;3.65;;
57155;SDS011;43023;59.928;10.682;2023-06-14T07:24:07;3.08;;;2.78;;
57155;SDS011;43023;59.928;10.682;2023-06-14T07:26:34;2.78;;;2.42;;
57155;SDS011;43023;59.928;10.682;2023-06-14T07:29:00;3.95;;;2.95;;
57155;SDS011;43023;59.928;10.682;2023-06-14T07:31:27;4.70;;;2.80;;
57155;SDS011;43023;59.928;10.682;2023-06-14T07:33:53;7.47;;;3.00;;
57155;SDS011;43023;59.928;10.682;2023-06-14T07:36:19;5.28;;;2.75;;
57155;SDS011;43023;59.928;10.682;2023-06-14T07:38:45;5.07;;;2.83;;
57155;SDS011;43023;59.928;10.682;2023-06-14T07:41:11;4.68;;;3.15;;
57155;SDS011;43023;59.928;10.682;2023-06-14T07:43:37;4.30;;;3.08;;
57155;SDS011;43023;59.928;10.682;2023-06-14T07:46:04;3.47;;;2.95;;
57155;SDS011;43023;59.928;10.682;2023-06-14T07:48:30;5.63;;;2.75;;
57155;SDS011;43023;59.928;10.682;2023-06-14T07:50:56;3.03;;;2.70;;
57155;SDS011;43023;59.928;10.682;2023-06-14T07:53:22;4.50;;;2.88;;
57155;SDS011;43023;59.928;10.682;2023-06-14T07:55:48;3.35;;;3.00;;
57155;SDS011;43023;59.928;10.682;2023-06-14T07:58:15;4.82;;;3.20;;
57155;SDS011;43023;59.928;10.682;2023-06-14T08:00:41;2.63;;;2.42;;
57155;SDS011;43023;59.928;10.682;2023-06-14T08:03:07;4.85;;;2.88;;
57155;SDS011;43023;59.928;10.682;2023-06-14T08:05:33;2.33;;;2.13;;
57155;SDS011;43023;59.928;10.682;2023-06-14T08:08:00;4.55;;;2.30;;
57155;SDS011;43023;59.928;10.682;2023-06-14T08:10:26;4.50;;;2.78;;
57155;SDS011;43023;59.928;10.682;2023-06-14T08:12:52;3.35;;;2.80;;
57155;SDS011;43023;59.928;10.682;2023-06-14T08:15:18;3.78;;;2.47;;
57155;SDS011;43023;59.928;10.682;2023-06-14T08:17:44;5.25;;;2.80;;
57155;SDS011;43023;59.928;10.682;2023-06-14T08:20:11;2.38;;;2.15;;
57155;SDS011;43023;59.928;10.682;2023-06-14T08:22:38;2.53;;;2.33;;
57155;SDS011;43023;59.928;10.682;2023-06-14T08:25:07;4.32;;;2.30;;
57155;SDS011;43023;59.928;10.682;2023-06-14T08:27:33;2.72;;;2.22;;
57155;SDS011;43023;59.928;10.682;2023-06-14T08:30:00;3.78;;;3.03;;
57155;SDS011;43023;59.928;10.682;2023-06-14T08:32:27;2.45;;;2.10;;
57155;SDS011;43023;59.928;10.682;2023-06-14T08:34:53;4.60;;;2.22;;
57155;SDS011;43023;59.928;10.682;2023-06-14T08:37:19;2.67;;;1.95;;
57155;SDS011;43023;59.928;10.682;2023-06-14T08:39:45;3.20;;;2.70;;
57155;SDS011;43023;59.928;10.682;2023-06-14T08:42:12;2.50;;;2.30;;
57155;SDS011;43023;59.928;10.682;2023-06-14T08:44:38;2.60;;;1.98;;
57155;SDS011;43023;59.928;10.682;2023-06-14T08:47:05;4.28;;;2.45;;
57155;SDS011;43023;59.928;10.682;2023-06-14T08:49:33;2.83;;;2.28;;
57155;SDS011;43023;59.928;10.682;2023-06-14T08:52:02;5.55;;;2.45;;
57155;SDS011;43023;59.928;10.682;2023-06-14T08:54:29;2.83;;;1.90;;
57155;SDS011;43023;59.928;10.682;2023-06-14T08:56:58;4.05;;;2.17;;
57155;SDS011;43023;59.928;10.682;2023-06-14T08:59:25;3.88;;;1.98;;
57155;SDS011;43023;59.928;10.682;2023-06-14T09:01:51;2.92;;;2.40;;
57155;SDS011;43023;59.928;10.682;2023-06-14T09:04:19;2.50;;;2.03;;
57155;SDS011;43023;59.928;10.682;2023-06-14T09:06:46;2.75;;;2.42;;
57155;SDS011;43023;59.928;10.682;2023-06-14T09:09:18;2.55;;;2.33;;
57155;SDS011;43023;59.928;10.682;2023-06-14T09:11:44;3.47;;;2.40;;
57155;SDS011;43023;59.928;10.682;2023-06-14T09:14:10;5.50;;;2.28;;
57155;SDS011;43023;59.928;10.682;2023-06-14T09:16:36;3.53;;;2.20;;
57155;SDS011;43023;59.928;10.682;2023-06-14T09:19:02;3.13;;;2.05;;
57155;SDS011;43023;59.928;10.682;2023-06-14T09:21:28;2.97;;;2.00;;
57155;SDS011;43023;59.928;10.682;2023-06-14T09:24:01;4.28;;;2.42;;
57155;SDS011;43023;59.928;10.682;2023-06-14T09:26:27;2.30;;;2.10;;
57155;SDS011;43023;59.928;10.682;2023-06-14T09:28:54;4.40;;;2.53;;
57155;SDS011;43023;59.928;10.682;2023-06-14T09:31:21;3.33;;;2.20;;
57155;SDS011;43023;59.928;10.682;2023-06-14T09:33:48;8.23;;;2.50;;
57155;SDS011;43023;59.928;10.682;2023-06-14T09:36:15;2.53;;;2.17;;
57155;SDS011;43023;59.928;10.682;2023-06-14T09:38:42;2.03;;;1.90;;
57155;SDS011;43023;59.928;10.682;2023-06-14T09:41:08;3.63;;;2.10;;
57155;SDS011;43023;59.928;10.682;2023-06-14T09:43:34;2.63;;;2.40;;
57155;SDS011;43023;59.928;10.682;2023-06-14T09:46:03;2.13;;;1.95;;
57155;SDS011;43023;59.928;10.682;2023-06-14T09:48:29;2.63;;;2.20;;
57155;SDS011;43023;59.928;10.682;2023-06-14T09:50:55;3.38;;;2.28;;
57155;SDS011;43023;59.928;10.682;2023-06-14T09:53:22;2.28;;;2.08;;
57155;SDS011;43023;59.928;10.682;2023-06-14T09:55:50;2.30;;;2.10;;
57155;SDS011;43023;59.928;10.682;2023-06-14T09:58:17;2.20;;;2.00;;
57155;SDS011;43023;59.928;10.682;2023-06-14T10:00:46;2.03;;;1.85;;
57155;SDS011;43023;59.928;10.682;2023-06-14T10:03:14;2.20;;;2.00;;
57155;SDS011;43023;59.928;10.682;2023-06-14T10:05:43;2.05;;;1.92;;
57155;SDS011;43023;59.928;10.682;2023-06-14T10:08:12;4.00;;;2.30;;
57155;SDS011;43023;59.928;10.682;2023-06-14T10:10:40;3.17;;;1.77;;
57155;SDS011;43023;59.928;10.682;2023-06-14T10:13:08;4.68;;;2.10;;
57155;SDS011;43023;59.928;10.682;2023-06-14T10:21:00;2.13;;;1.75;;
57155;SDS011;43023;59.928;10.682;2023-06-14T10:23:30;1.88;;;1.77;;
57155;SDS011;43023;59.928;10.682;2023-06-14T10:25:59;4.63;;;2.17;;
57155;SDS011;43023;59.928;10.682;2023-06-14T10:28:25;3.22;;;1.98;;
57155;SDS011;43023;59.928;10.682;2023-06-14T10:33:30;2.90;;;2.25;;
57155;SDS011;43023;59.928;10.682;2023-06-14T10:41:28;2.75;;;1.70;;
57155;SDS011;43023;59.928;10.682;2023-06-14T10:46:53;2.08;;;1.88;;
57155;SDS011;43023;59.928;10.682;2023-06-14T10:49:20;2.88;;;1.65;;
57155;SDS011;43023;59.928;10.682;2023-06-14T10:52:07;3.38;;;1.70;;
57155;SDS011;43023;59.928;10.682;2023-06-14T10:54:37;1.60;;;1.05;;
57155;SDS011;43023;59.928;10.682;2023-06-14T10:57:03;2.35;;;1.73;;
57155;SDS011;43023;59.928;10.682;2023-06-14T10:59:32;4.78;;;1.80;;
57155;SDS011;43023;59.928;10.682;2023-06-14T11:12:45;1.92;;;1.35;;
57155;SDS011;43023;59.928;10.682;2023-06-14T11:15:13;2.95;;;1.92;;
57155;SDS011;43023;59.928;10.682;2023-06-14T11:17:42;3.30;;;1.85;;
57155;SDS011;43023;59.928;10.682;2023-06-14T11:20:16;1.77;;;1.67;;
57155;SDS011;43023;59.928;10.682;2023-06-14T11:22:42;2.22;;;2.03;;
57155;SDS011;43023;59.928;10.682;2023-06-14T11:25:09;2.35;;;1.52;;
57155;SDS011;43023;59.928;10.682;2023-06-14T11:27:35;1.35;;;1.25;;
57155;SDS011;43023;59.928;10.682;2023-06-14T11:30:02;1.40;;;1.30;;
57155;SDS011;43023;59.928;10.682;2023-06-14T11:32:28;1.40;;;1.30;;
57155;SDS011;43023;59.928;10.682;2023-06-14T11:34:56;1.92;;;1.50;;
57155;SDS011;43023;59.928;10.682;2023-06-14T11:37:24;1.67;;;1.40;;
57155;SDS011;43023;59.928;10.682;2023-06-14T11:39:51;2.13;;;1.90;;
57155;SDS011;43023;59.928;10.682;2023-06-14T11:42:17;1.85;;;1.65;;
57155;SDS011;43023;59.928;10.682;2023-06-14T11:44:46;1.55;;;1.40;;
57155;SDS011;43023;59.928;10.682;2023-06-14T11:47:12;2.58;;;1.40;;
57155;SDS011;43023;59.928;10.682;2023-06-14T11:49:39;2.25;;;1.80;;
57155;SDS011;43023;59.928;10.682;2023-06-14T11:52:05;2.78;;;1.63;;
57155;SDS011;43023;59.928;10.682;2023-06-14T11:54:34;2.00;;;1.70;;
57155;SDS011;43023;59.928;10.682;2023-06-14T11:57:00;2.20;;;2.00;;
57155;SDS011;43023;59.928;10.682;2023-06-14T11:59:27;2.05;;;1.50;;
57155;SDS011;43023;59.928;10.682;2023-06-14T12:01:53;1.73;;;1.48;;
57155;SDS011;43023;59.928;10.682;2023-06-14T12:04:29;1.40;;;1.30;;
57155;SDS011;43023;59.928;10.682;2023-06-14T12:06:55;1.50;;;1.40;;
57155;SDS011;43023;59.928;10.682;2023-06-14T12:09:22;1.60;;;1.15;;
57155;SDS011;43023;59.928;10.682;2023-06-14T12:11:50;1.73;;;1.60;;
57155;SDS011;43023;59.928;10.682;2023-06-14T12:14:17;1.70;;;1.60;;
57155;SDS011;43023;59.928;10.682;2023-06-14T12:16:43;1.83;;;1.60;;
57155;SDS011;43023;59.928;10.682;2023-06-14T12:19:13;1.75;;;1.50;;
57155;SDS011;43023;59.928;10.682;2023-06-14T12:21:39;1.75;;;1.65;;
57155;SDS011;43023;59.928;10.682;2023-06-14T12:24:06;1.73;;;1.63;;
57155;SDS011;43023;59.928;10.682;2023-06-14T12:26:32;1.50;;;1.15;;
57155;SDS011;43023;59.928;10.682;2023-06-14T12:28:58;1.60;;;1.50;;
57155;SDS011;43023;59.928;10.682;2023-06-14T12:31:25;1.58;;;1.48;;
57155;SDS011;43023;59.928;10.682;2023-06-14T12:33:51;1.85;;;1.63;;
57155;SDS011;43023;59.928;10.682;2023-06-14T12:36:17;1.60;;;1.50;;
57155;SDS011;43023;59.928;10.682;2023-06-14T12:38:45;1.50;;;1.40;;
57155;SDS011;43023;59.928;10.682;2023-06-14T12:41:11;1.45;;;1.30;;
57155;SDS011;43023;59.928;10.682;2023-06-14T12:43:39;1.92;;;1.60;;
57155;SDS011;43023;59.928;10.682;2023-06-14T12:46:05;1.50;;;1.40;;
57155;SDS011;43023;59.928;10.682;2023-06-14T12:48:31;1.40;;;1.30;;
57155;SDS011;43023;59.928;10.682;2023-06-14T12:50:59;1.63;;;1.52;;
57155;SDS011;43023;59.928;10.682;2023-06-14T12:53:25;1.45;;;1.35;;
57155;SDS011;43023;59.928;10.682;2023-06-14T12:55:51;1.77;;;1.20;;
57155;SDS011;43023;59.928;10.682;2023-06-14T12:58:17;1.30;;;1.20;;
57155;SDS011;43023;59.928;10.682;2023-06-14T13:00:45;1.67;;;1.20;;
57155;SDS011;43023;59.928;10.682;2023-06-14T13:03:11;1.10;;;1.00;;
57155;SDS011;43023;59.928;10.682;2023-06-14T13:05:37;1.58;;;1.48;;
57155;SDS011;43023;59.928;10.682;2023-06-14T13:08:06;2.20;;;2.00;;
57155;SDS011;43023;59.928;10.682;2023-06-14T13:10:33;1.10;;;1.10;;
57155;SDS011;43023;59.928;10.682;2023-06-14T13:12:59;1.67;;;1.45;;
57155;SDS011;43023;59.928;10.682;2023-06-14T13:15:26;1.35;;;1.25;;
57155;SDS011;43023;59.928;10.682;2023-06-14T13:17:52;1.42;;;1.33;;
57155;SDS011;43023;59.928;10.682;2023-06-14T13:20:18;2.67;;;1.45;;
57155;SDS011;43023;59.928;10.682;2023-06-14T13:22:45;1.17;;;1.17;;
57155;SDS011;43023;59.928;10.682;2023-06-14T13:25:11;1.58;;;1.42;;
57155;SDS011;43023;59.928;10.682;2023-06-14T13:27:37;1.38;;;1.27;;
57155;SDS011;43023;59.928;10.682;2023-06-14T13:30:03;1.13;;;1.02;;
57155;SDS011;43023;59.928;10.682;2023-06-14T13:32:30;1.20;;;1.10;;
57155;SDS011;43023;59.928;10.682;2023-06-14T13:34:56;1.42;;;1.27;;
57155;SDS011;43023;59.928;10.682;2023-06-14T13:37:22;1.35;;;1.25;;
57155;SDS011;43023;59.928;10.682;2023-06-14T13:39:49;3.17;;;1.30;;
57155;SDS011;43023;59.928;10.682;2023-06-14T13:42:15;2.72;;;1.48;;
57155;SDS011;43023;59.928;10.682;2023-06-14T13:44:41;2.50;;;1.52;;
57155;SDS011;43023;59.928;10.682;2023-06-14T13:47:07;1.58;;;1.25;;
57155;SDS011;43023;59.928;10.682;2023-06-14T13:49:33;1.75;;;1.42;;
57155;SDS011;43023;59.928;10.682;2023-06-14T13:52:00;1.27;;;1.20;;
57155;SDS011;43023;59.928;10.682;2023-06-14T13:54:26;1.10;;;1.10;;
57155;SDS011;43023;59.928;10.682;2023-06-14T13:56:53;1.05;;;1.05;;
57155;SDS011;43023;59.928;10.682;2023-06-14T13:59:19;0.98;;;0.98;;
57155;SDS011;43023;59.928;10.682;2023-06-14T14:01:45;1.52;;;1.42;;
57155;SDS011;43023;59.928;10.682;2023-06-14T14:04:12;2.25;;;1.38;;
57155;SDS011;43023;59.928;10.682;2023-06-14T14:06:38;1.10;;;1.10;;
57155;SDS011;43023;59.928;10.682;2023-06-14T14:09:04;1.73;;;1.30;;
57155;SDS011;43023;59.928;10.682;2023-06-14T14:11:31;1.30;;;1.20;;
57155;SDS011;43023;59.928;10.682;2023-06-14T14:13:58;1.50;;;1.40;;
57155;SDS011;43023;59.928;10.682;2023-06-14T14:16:24;1.58;;;1.20;;
57155;SDS011;43023;59.928;10.682;2023-06-14T14:18:51;1.13;;;1.02;;
57155;SDS011;43023;59.928;10.682;2023-06-14T14:21:17;0.98;;;0.98;;
57155;SDS011;43023;59.928;10.682;2023-06-14T14:23:43;1.13;;;1.13;;
57155;SDS011;43023;59.928;10.682;2023-06-14T14:26:10;1.48;;;1.27;;
57155;SDS011;43023;59.928;10.682;2023-06-14T14:28:36;1.27;;;1.20;;
57155;SDS011;43023;59.928;10.682;2023-06-14T14:31:02;1.05;;;1.00;;
57155;SDS011;43023;59.928;10.682;2023-06-14T14:33:29;1.23;;;1.23;;
57155;SDS011;43023;59.928;10.682;2023-06-14T14:35:55;2.00;;;1.00;;
57155;SDS011;43023;59.928;10.682;2023-06-14T14:38:21;1.05;;;0.95;;
57155;SDS011;43023;59.928;10.682;2023-06-14T14:40:47;1.27;;;1.13;;
57155;SDS011;43023;59.928;10.682;2023-06-14T14:43:13;1.40;;;1.30;;
57155;SDS011;43023;59.928;10.682;2023-06-14T14:45:39;1.10;;;1.10;;
57155;SDS011;43023;59.928;10.682;2023-06-14T14:48:05;1.10;;;1.10;;
57155;SDS011;43023;59.928;10.682;2023-06-14T14:50:32;1.33;;;1.05;;
57155;SDS011;43023;59.928;10.682;2023-06-14T14:52:58;1.27;;;1.05;;
57155;SDS011;43023;59.928;10.682;2023-06-14T14:55:24;1.77;;;1.38;;
57155;SDS011;43023;59.928;10.682;2023-06-14T14:57:50;1.60;;;1.50;;
57155;SDS011;43023;59.928;10.682;2023-06-14T15:00:16;0.95;;;0.95;;